createdAt,value
2022-08-03T00:04:04.039Z,1.09
2022-08-03T00:09:35.917Z,1.12
2022-08-03T00:14:58.695Z,1.20
2022-08-03T00:20:28.059Z,1.54
2022-08-03T00:25:55.027Z,1.58
2022-08-03T00:31:38.004Z,1.63
2022-08-03T00:36:49.766Z,1.66
2022-08-03T00:42:17.018Z,1.51
2022-08-03T00:47:43.107Z,1.40
2022-08-03T00:53:08.985Z,1.39
2022-08-03T00:58:37.510Z,1.25
2022-08-03T01:04:02.021Z,1.07
2022-08-03T01:09:28.483Z,1.38
2022-08-03T01:14:59.781Z,1.09
2022-08-03T01:20:23.100Z,1.34
2022-08-03T01:25:54.466Z,1.09
2022-08-03T01:31:28.743Z,1.47
2022-08-03T01:36:58.465Z,1.41
2022-08-03T01:42:18.247Z,1.37
2022-08-03T01:47:45.870Z,1.56
2022-08-03T01:53:10.679Z,1.43
2022-08-03T01:58:34.980Z,1.34
2022-08-03T02:04:02.744Z,1.48
2022-08-03T02:09:28.534Z,1.69
2022-08-03T02:14:54.390Z,1.29
2022-08-03T02:20:23.902Z,1.36
2022-08-03T02:25:47.939Z,1.29
2022-08-03T02:31:18.828Z,1.19
2022-08-03T02:36:46.724Z,1.47
2022-08-03T02:42:14.363Z,1.49
2022-08-03T02:47:54.388Z,1.68
2022-08-03T02:53:08.984Z,1.28
2022-08-03T02:58:33.661Z,1.73
2022-08-03T03:03:59.038Z,1.59
2022-08-03T03:09:23.367Z,1.42
2022-08-03T03:14:48.564Z,1.40
2022-08-03T03:20:15.861Z,1.37
2022-08-03T03:25:43.116Z,1.42
2022-08-03T03:31:09.067Z,1.39
2022-08-03T03:36:34.760Z,1.22
2022-08-03T03:41:59.928Z,1.75
2022-08-03T03:47:32.224Z,1.88
2022-08-03T03:52:46.462Z,1.74
2022-08-03T03:58:15.083Z,1.69
2022-08-03T04:03:40.120Z,2.22
2022-08-03T04:09:03.917Z,2.11
2022-08-03T04:14:25.756Z,2.28
2022-08-03T04:19:47.963Z,2.30
2022-08-03T04:25:14.074Z,2.01
2022-08-03T04:30:40.774Z,2.06
2022-08-03T04:36:04.884Z,1.76
2022-08-03T04:41:32.523Z,1.93
2022-08-03T04:46:56.559Z,1.62
2022-08-03T04:52:24.681Z,1.78
2022-08-03T04:57:46.250Z,1.56
2022-08-03T05:03:20.263Z,1.43
2022-08-03T05:08:36.368Z,1.71
2022-08-03T05:14:03.443Z,1.48
2022-08-03T05:19:29.826Z,1.49
2022-08-03T05:24:55.989Z,1.37
2022-08-03T05:30:30.866Z,1.68
2022-08-03T05:36:01.125Z,1.65
2022-08-03T05:41:22.507Z,1.85
2022-08-03T05:46:41.272Z,1.50
2022-08-03T05:52:13.916Z,1.45
2022-08-03T05:57:32.675Z,1.41
2022-08-03T06:02:55.624Z,1.66
2022-08-03T06:08:22.541Z,1.74
2022-08-03T06:13:48.094Z,1.77
2022-08-03T06:19:12.702Z,1.64
2022-08-03T06:24:40.546Z,1.46
2022-08-03T06:30:05.519Z,1.96
2022-08-03T06:35:35.197Z,1.62
2022-08-03T06:41:01.803Z,1.64
2022-08-03T06:46:26.015Z,1.56
2022-08-03T06:52:03.000Z,2.19
2022-08-03T06:57:15.981Z,2.02
2022-08-03T07:02:43.962Z,1.73
2022-08-03T07:08:08.956Z,1.71
2022-08-03T07:13:31.140Z,1.51
2022-08-03T07:18:56.106Z,1.49
2022-08-03T07:24:24.127Z,1.44
2022-08-03T07:29:52.844Z,1.56
2022-08-03T07:35:24.441Z,1.48
2022-08-03T07:40:46.034Z,1.56
2022-08-03T07:46:10.347Z,1.25
2022-08-03T07:51:39.072Z,1.38
2022-08-03T07:57:06.488Z,1.40
2022-08-03T08:02:35.100Z,1.03
2022-08-03T08:08:03.444Z,1.34
2022-08-03T08:13:26.255Z,1.31
2022-08-03T08:18:48.886Z,1.23
2022-08-03T08:24:18.363Z,1.35
2022-08-03T08:29:52.669Z,1.20
2022-08-03T08:35:10.953Z,1.40
2022-08-03T08:40:35.042Z,0.79
2022-08-03T08:46:01.310Z,1.18
2022-08-03T08:51:59.709Z,1.15
2022-08-03T08:56:50.314Z,0.76
2022-08-03T09:02:13.433Z,1.43
2022-08-03T09:07:41.060Z,1.15
2022-08-03T09:13:08.446Z,1.26
2022-08-03T09:18:36.392Z,1.19
2022-08-03T09:24:01.495Z,1.00
2022-08-03T09:29:29.793Z,1.20
2022-08-03T09:34:58.443Z,1.13
2022-08-03T09:40:26.366Z,1.02
2022-08-03T09:46:28.835Z,1.02
2022-08-03T10:07:05.912Z,1.01
2022-08-03T10:12:25.654Z,1.16
2022-08-03T10:17:52.584Z,1.03
2022-08-03T10:23:20.274Z,1.22
2022-08-03T10:28:48.044Z,1.13
2022-08-03T10:34:20.676Z,1.18
2022-08-03T10:39:45.436Z,0.98
2022-08-03T10:45:08.419Z,1.30
2022-08-03T10:50:38.220Z,1.18
2022-08-03T10:56:03.777Z,1.38
2022-08-03T11:02:00.355Z,1.25
2022-08-03T11:07:16.613Z,1.19
2022-08-03T11:12:41.425Z,1.20
2022-08-03T11:18:11.191Z,1.00
2022-08-03T11:24:04.335Z,1.39
2022-08-03T11:29:02.282Z,1.17
2022-08-03T11:34:50.311Z,1.02
2022-08-03T11:40:26.669Z,1.20
2022-08-03T11:46:00.866Z,1.17
2022-08-03T11:51:26.410Z,0.99
2022-08-03T11:56:50.866Z,1.17
2022-08-03T12:02:13.133Z,1.09
2022-08-03T12:08:03.377Z,0.97
2022-08-03T12:12:59.014Z,1.07
2022-08-03T12:18:23.208Z,1.28
2022-08-03T12:23:45.754Z,1.12
2022-08-03T12:29:12.362Z,1.07
2022-08-03T12:34:43.011Z,1.13
2022-08-03T12:40:10.657Z,1.25
2022-08-03T12:45:36.858Z,1.18
2022-08-03T12:51:05.577Z,1.03
2022-08-03T12:56:28.369Z,1.07
2022-08-03T13:01:56.650Z,0.95
2022-08-03T13:07:19.550Z,1.24
2022-08-03T13:12:47.658Z,1.00
2022-08-03T13:18:17.466Z,0.99
2022-08-03T13:23:43.085Z,1.10
2022-08-03T13:29:09.098Z,1.15
2022-08-03T13:34:37.734Z,1.09
2022-08-03T13:40:05.450Z,1.07
2022-08-03T13:45:28.742Z,1.14
2022-08-03T13:50:56.756Z,1.39
2022-08-03T13:56:24.125Z,1.27
2022-08-03T14:01:55.302Z,1.35
2022-08-03T14:07:09.356Z,1.29
2022-08-03T14:12:31.200Z,1.14
2022-08-03T14:17:54.182Z,1.48
2022-08-03T14:23:16.132Z,1.36
2022-08-03T14:28:38.639Z,1.07
2022-08-03T14:34:01.037Z,1.32
2022-08-03T14:39:23.225Z,1.29
2022-08-03T14:44:45.282Z,1.07
2022-08-03T14:50:36.926Z,1.18
2022-08-03T14:55:29.752Z,1.05
2022-08-03T15:00:51.971Z,0.99
2022-08-03T15:06:13.553Z,0.99
2022-08-03T15:11:36.331Z,0.96
2022-08-03T15:16:58.359Z,1.06
2022-08-03T15:22:25.366Z,0.97
2022-08-03T15:28:02.884Z,1.10
2022-08-03T15:33:05.591Z,0.99
2022-08-03T15:38:27.958Z,0.94
2022-08-03T15:43:51.630Z,0.92
2022-08-03T15:49:14.371Z,1.11
2022-08-03T15:54:36.774Z,0.95
2022-08-03T15:59:58.718Z,0.93
2022-08-03T16:05:22.731Z,0.91
2022-08-03T16:10:43.992Z,1.15
2022-08-03T16:16:08.036Z,0.89
2022-08-03T16:21:38.674Z,0.92
2022-08-03T16:27:02.293Z,1.17
2022-08-03T16:32:28.637Z,0.98
2022-08-03T16:37:56.255Z,0.76
2022-08-03T16:43:19.283Z,0.89
2022-08-03T16:48:47.135Z,0.87
2022-08-03T16:54:14.059Z,0.94
2022-08-03T16:59:37.551Z,0.80
2022-08-03T17:05:01.529Z,0.98
2022-08-03T17:10:29.724Z,0.96
2022-08-03T17:16:01.210Z,0.82
2022-08-03T17:21:20.007Z,0.75
2022-08-03T17:26:50.031Z,0.90
2022-08-03T17:32:18.186Z,1.08
2022-08-03T17:37:57.698Z,0.94
2022-08-03T17:44:13.421Z,1.20
2022-08-03T17:48:33.941Z,1.20
2022-08-03T17:53:59.155Z,1.31
2022-08-03T17:59:51.661Z,1.68
2022-08-03T18:10:20.001Z,1.04
2022-08-03T18:15:46.470Z,0.90
2022-08-03T18:21:17.211Z,0.99
2022-08-03T18:26:39.088Z,0.98
2022-08-03T18:32:06.068Z,1.06
2022-08-03T18:37:29.997Z,1.03
2022-08-03T18:42:54.762Z,1.41
2022-08-03T18:48:18.306Z,1.37
2022-08-03T18:54:02.128Z,1.56
2022-08-03T18:59:03.259Z,1.30
2022-08-03T19:04:31.195Z,1.22
2022-08-03T19:09:58.830Z,1.01
2022-08-03T19:15:36.093Z,0.96
2022-08-03T19:20:50.230Z,0.91
2022-08-03T19:26:30.506Z,1.34
2022-08-03T19:31:39.472Z,1.00
2022-08-03T19:37:07.325Z,1.15
2022-08-03T19:42:31.734Z,1.09
2022-08-03T19:47:59.614Z,1.33
2022-08-03T19:53:23.424Z,0.96
2022-08-03T19:58:53.294Z,1.18
2022-08-03T20:04:15.595Z,1.28
2022-08-03T20:09:44.636Z,1.67
2022-08-03T20:20:36.193Z,1.30
2022-08-03T20:26:03.635Z,1.29
2022-08-03T20:31:36.221Z,1.41
2022-08-03T20:36:53.180Z,1.22
2022-08-03T20:42:21.606Z,1.30
2022-08-03T20:47:50.531Z,1.23
2022-08-03T20:53:16.747Z,1.40
2022-08-03T20:58:41.652Z,1.36
2022-08-03T21:04:04.673Z,1.62
2022-08-03T21:09:33.324Z,1.37
2022-08-03T21:12:56.492Z,1.04
2022-08-03T21:13:09.655Z,1.46
2022-08-03T21:14:58.766Z,1.40
2022-08-03T21:20:28.749Z,1.21
2022-08-03T21:25:57.516Z,1.63
2022-08-03T21:31:25.226Z,1.71
2022-08-03T21:36:50.626Z,1.43
2022-08-03T21:42:18.845Z,1.34
2022-08-03T21:47:46.234Z,1.45
2022-08-03T21:53:13.349Z,1.44
2022-08-03T21:58:38.516Z,1.43
2022-08-03T22:04:07.052Z,1.66
2022-08-03T22:09:34.390Z,1.54
2022-08-03T22:15:01.923Z,1.71
2022-08-03T22:20:25.468Z,1.46
2022-08-03T22:25:51.852Z,1.58
2022-08-03T22:31:30.566Z,1.55
2022-08-03T22:36:45.386Z,1.27
2022-08-03T22:42:07.991Z,1.63
2022-08-03T22:47:32.189Z,1.49
2022-08-03T22:52:59.505Z,1.70
2022-08-03T22:58:27.206Z,1.58
2022-08-03T23:03:59.782Z,1.53
2022-08-03T23:09:16.480Z,1.48
2022-08-03T23:14:44.026Z,1.83
2022-08-03T23:20:11.758Z,1.70
2022-08-03T23:25:41.294Z,1.76
2022-08-03T23:31:04.858Z,1.30
2022-08-03T23:36:32.024Z,1.63
2022-08-03T23:41:59.209Z,1.76
2022-08-03T23:47:21.708Z,1.80
2022-08-03T23:52:48.671Z,1.53
2022-08-03T23:58:20.849Z,1.78
